createdAt,value
2022-09-12T00:01:38.095Z,66.63
2022-09-12T00:04:05.555Z,66.29
2022-09-12T00:06:35.495Z,66.20
2022-09-12T00:09:09.351Z,66.12
2022-09-12T00:11:37.785Z,66.36
2022-09-12T00:14:05.602Z,66.24
2022-09-12T00:16:34.902Z,66.25
2022-09-12T00:19:03.068Z,66.01
2022-09-12T00:21:30.145Z,66.16
2022-09-12T00:23:57.040Z,66.19
2022-09-12T00:26:24.677Z,66.23
2022-09-12T00:28:51.673Z,66.45
2022-09-12T00:31:24.304Z,66.42
2022-09-12T00:33:51.847Z,66.17
2022-09-12T00:36:20.878Z,66.32
2022-09-12T00:38:48.277Z,66.17
2022-09-12T00:41:19.541Z,66.37
2022-09-12T00:43:58.629Z,66.16
2022-09-12T00:46:37.148Z,66.48
2022-09-12T00:49:13.381Z,66.36
2022-09-12T00:51:43.674Z,66.19
2022-09-12T00:54:13.299Z,66.29
2022-09-12T00:56:41.847Z,66.35
2022-09-12T00:59:12.929Z,66.34
2022-09-12T01:01:40.905Z,66.36
2022-09-12T01:04:09.427Z,66.09
2022-09-12T01:06:41.156Z,66.11
2022-09-12T01:09:08.968Z,66.18
2022-09-12T01:11:37.191Z,66.23
2022-09-12T01:14:04.131Z,65.94
2022-09-12T01:16:31.235Z,66.06
2022-09-12T01:19:09.103Z,66.01
2022-09-12T01:21:44.941Z,66.12
2022-09-12T01:24:32.639Z,66.16
2022-09-12T01:27:38.197Z,66.37
2022-09-12T01:30:38.764Z,66.23
2022-09-12T01:33:35.351Z,66.30
2022-09-12T01:36:30.532Z,66.39
2022-09-12T01:39:01.049Z,66.36
2022-09-12T01:41:42.528Z,66.32
2022-09-12T01:44:32.237Z,66.28
2022-09-12T01:47:14.528Z,66.28
2022-09-12T01:49:46.405Z,66.40
2022-09-12T01:52:41.615Z,66.41
2022-09-12T01:55:17.114Z,66.30
2022-09-12T01:57:58.155Z,66.37
2022-09-12T02:00:25.191Z,66.22
2022-09-12T02:02:58.113Z,66.20
2022-09-12T02:05:36.478Z,66.56
2022-09-12T02:08:26.444Z,66.50
2022-09-12T02:10:57.071Z,66.48
2022-09-12T02:13:38.969Z,66.51
2022-09-12T02:16:10.745Z,66.30
2022-09-12T02:18:45.267Z,66.08
2022-09-12T02:21:12.322Z,66.40
2022-09-12T02:23:43.861Z,66.39
2022-09-12T02:26:15.185Z,66.22
2022-09-12T02:28:43.027Z,66.25
2022-09-12T02:31:40.205Z,66.22
2022-09-12T02:34:28.777Z,66.18
2022-09-12T02:37:04.518Z,66.29
2022-09-12T02:39:31.681Z,66.54
2022-09-12T02:42:00.986Z,66.57
2022-09-12T02:44:29.923Z,66.05
2022-09-12T02:47:05.079Z,66.19
2022-09-12T02:49:31.966Z,66.38
2022-09-12T02:51:59.501Z,66.30
2022-09-12T02:54:26.280Z,66.53
2022-09-12T02:56:53.128Z,66.44
2022-09-12T02:59:21.473Z,66.45
2022-09-12T03:02:00.260Z,66.39
2022-09-12T03:04:52.156Z,66.30
2022-09-12T03:07:37.813Z,66.39
2022-09-12T03:10:32.791Z,66.52
2022-09-12T03:13:23.159Z,66.43
2022-09-12T03:16:05.170Z,66.63
2022-09-12T03:18:50.682Z,66.66
2022-09-12T03:21:38.406Z,66.29
2022-09-12T03:24:16.467Z,66.52
2022-09-12T03:26:47.566Z,66.63
2022-09-12T03:29:15.251Z,66.55
2022-09-12T03:31:56.714Z,66.56
2022-09-12T03:34:25.346Z,66.54
2022-09-12T03:36:55.343Z,66.59
2022-09-12T03:39:24.442Z,66.38
2022-09-12T03:41:51.597Z,66.52
2022-09-12T03:44:18.881Z,66.19
2022-09-12T03:46:45.977Z,66.41
2022-09-12T03:49:13.009Z,66.50
2022-09-12T03:51:40.134Z,66.56
2022-09-12T03:54:07.117Z,66.46
2022-09-12T03:56:34.497Z,66.40
2022-09-12T03:59:01.335Z,66.58
2022-09-12T04:01:28.212Z,66.71
2022-09-12T04:03:54.990Z,66.65
2022-09-12T04:06:22.816Z,66.47
2022-09-12T04:08:52.049Z,66.43
2022-09-12T04:11:20.651Z,66.47
2022-09-12T04:13:47.728Z,66.59
2022-09-12T04:16:15.774Z,66.34
2022-09-12T04:18:42.840Z,66.37
2022-09-12T04:21:15.315Z,66.29
2022-09-12T04:23:42.272Z,66.63
2022-09-12T04:26:09.066Z,66.39
2022-09-12T04:28:37.077Z,66.54
2022-09-12T04:31:23.538Z,66.47
2022-09-12T04:33:55.029Z,66.69
2022-09-12T04:36:22.846Z,66.73
2022-09-12T04:38:50.290Z,66.62
2022-09-12T04:41:20.775Z,66.75
2022-09-12T04:43:48.578Z,66.25
2022-09-12T04:46:19.958Z,66.35
2022-09-12T04:48:47.603Z,66.65
2022-09-12T04:51:20.897Z,66.62
2022-09-12T04:53:49.789Z,66.59
2022-09-12T04:56:16.889Z,66.57
2022-09-12T04:58:43.904Z,66.70
2022-09-12T05:01:21.707Z,66.98
2022-09-12T05:03:49.626Z,66.97
2022-09-12T05:06:22.216Z,66.91
2022-09-12T05:08:49.026Z,67.02
2022-09-12T05:11:24.808Z,67.12
2022-09-12T05:13:54.123Z,67.60
2022-09-12T05:16:21.952Z,67.24
2022-09-12T05:18:50.177Z,67.41
2022-09-12T05:21:19.650Z,67.58
2022-09-12T05:23:49.707Z,67.52
2022-09-12T05:26:17.187Z,67.43
2022-09-12T05:28:44.052Z,67.57
2022-09-12T05:31:12.388Z,67.35
2022-09-12T05:33:40.703Z,67.34
2022-09-12T05:36:13.543Z,67.50
2022-09-12T05:38:40.521Z,67.57
2022-09-12T05:41:19.878Z,67.51
2022-09-12T05:43:53.040Z,67.53
2022-09-12T05:46:21.411Z,67.67
2022-09-12T05:48:52.489Z,67.80
2022-09-12T05:51:29.112Z,67.85
2022-09-12T05:53:57.668Z,67.85
2022-09-12T05:56:28.873Z,68.12
2022-09-12T05:58:58.012Z,68.29
2022-09-12T06:01:26.244Z,68.37
2022-09-12T06:03:54.939Z,68.77
2022-09-12T06:06:24.423Z,68.77
2022-09-12T06:08:53.012Z,68.72
2022-09-12T06:11:23.031Z,68.66
2022-09-12T06:13:51.158Z,68.59
2022-09-12T06:16:22.770Z,67.95
2022-09-12T06:19:02.267Z,67.99
2022-09-12T06:21:31.285Z,68.18
2022-09-12T06:23:58.913Z,68.13
2022-09-12T06:26:26.191Z,68.04
2022-09-12T06:28:54.332Z,68.32
2022-09-12T06:31:26.800Z,68.55
2022-09-12T06:33:54.695Z,68.53
2022-09-12T06:36:32.331Z,68.72
2022-09-12T06:39:01.455Z,68.88
2022-09-12T06:41:29.257Z,69.14
2022-09-12T06:43:56.654Z,68.74
2022-09-12T06:46:24.402Z,68.65
2022-09-12T06:48:54.262Z,68.63
2022-09-12T06:51:21.535Z,68.52
2022-09-12T06:53:49.207Z,68.47
2022-09-12T06:56:21.593Z,68.53
2022-09-12T06:58:50.439Z,68.54
2022-09-12T07:01:20.785Z,68.70
2022-09-12T07:03:52.425Z,68.89
2022-09-12T07:06:21.482Z,68.96
2022-09-12T07:08:48.582Z,69.04
2022-09-12T07:11:21.089Z,69.17
2022-09-12T07:13:50.071Z,69.21
2022-09-12T07:16:20.002Z,69.34
2022-09-12T07:18:51.754Z,69.02
2022-09-12T07:21:18.831Z,68.60
2022-09-12T07:23:46.160Z,68.10
2022-09-12T07:26:14.512Z,67.47
2022-09-12T07:28:41.840Z,67.24
2022-09-12T07:31:14.059Z,66.53
2022-09-12T07:33:41.768Z,65.33
2022-09-12T07:36:13.576Z,64.04
2022-09-12T07:39:02.163Z,62.88
2022-09-12T07:41:36.005Z,61.96
2022-09-12T07:44:04.093Z,61.14
2022-09-12T07:46:50.278Z,60.02
2022-09-12T07:49:17.197Z,59.49
2022-09-12T07:51:44.322Z,59.01
2022-09-12T07:54:26.886Z,58.71
2022-09-12T07:56:54.037Z,58.11
2022-09-12T07:59:35.640Z,57.84
2022-09-12T08:02:17.138Z,57.49
2022-09-12T08:04:44.921Z,57.69
2022-09-12T08:07:14.672Z,58.08
2022-09-12T08:09:41.562Z,58.37
2022-09-12T08:12:11.317Z,58.79
2022-09-12T08:14:41.318Z,58.68
2022-09-12T08:17:08.522Z,58.83
2022-09-12T08:19:35.511Z,59.02
2022-09-12T08:22:05.441Z,58.87
2022-09-12T08:24:34.563Z,59.49
2022-09-12T08:27:05.110Z,59.89
2022-09-12T08:29:32.110Z,60.55
2022-09-12T08:31:58.962Z,60.74
2022-09-12T08:34:26.129Z,60.85
2022-09-12T08:36:55.857Z,61.36
2022-09-12T08:39:22.657Z,61.37
2022-09-12T08:41:57.940Z,61.96
2022-09-12T08:44:46.480Z,62.38
2022-09-12T08:47:32.949Z,62.47
2022-09-12T08:50:10.555Z,62.84
2022-09-12T08:52:46.276Z,63.02
2022-09-12T08:55:31.131Z,63.18
2022-09-12T08:58:00.647Z,63.58
2022-09-12T09:00:42.134Z,64.05
2022-09-12T09:03:38.681Z,63.80
2022-09-12T09:06:31.225Z,64.25
2022-09-12T09:09:24.392Z,64.19
2022-09-12T09:12:10.789Z,64.47
2022-09-12T09:15:01.143Z,64.59
2022-09-12T09:17:32.936Z,64.52
2022-09-12T09:20:12.312Z,64.82
2022-09-12T09:23:08.189Z,64.57
2022-09-12T09:25:50.616Z,64.90
2022-09-12T09:28:22.658Z,65.06
2022-09-12T09:30:49.419Z,65.07
2022-09-12T09:33:22.928Z,65.06
2022-09-12T09:36:04.669Z,65.27
2022-09-12T09:38:45.252Z,65.24
2022-09-12T09:41:26.755Z,65.61
2022-09-12T09:43:53.472Z,65.50
2022-09-12T09:46:20.220Z,65.71
2022-09-12T09:48:50.266Z,65.51
2022-09-12T09:51:21.984Z,65.53
2022-09-12T09:53:52.248Z,65.65
2022-09-12T09:56:33.517Z,65.87
2022-09-12T09:59:16.422Z,65.59
2022-09-12T10:01:57.756Z,65.87
2022-09-12T10:04:31.240Z,65.70
2022-09-12T10:06:59.615Z,65.69
2022-09-12T10:09:33.006Z,65.60
2022-09-12T10:12:06.192Z,65.44
2022-09-12T10:14:38.539Z,65.58
2022-09-12T10:17:33.125Z,65.79
2022-09-12T10:20:19.912Z,65.92
2022-09-12T10:22:47.580Z,65.79
2022-09-12T10:25:16.517Z,65.53
2022-09-12T10:27:43.340Z,65.78
2022-09-12T10:30:18.430Z,65.93
2022-09-12T10:32:52.150Z,65.84
2022-09-12T10:35:24.396Z,66.03
2022-09-12T10:37:57.787Z,66.01
2022-09-12T10:40:27.702Z,66.00
2022-09-12T10:42:57.062Z,66.06
2022-09-12T10:45:29.636Z,66.20
2022-09-12T10:47:59.081Z,66.19
2022-09-12T10:50:32.182Z,66.27
2022-09-12T10:53:23.277Z,66.15
2022-09-12T10:56:02.151Z,66.67
2022-09-12T10:58:51.882Z,66.03
2022-09-12T11:01:45.972Z,66.34
2022-09-12T11:04:43.642Z,66.54
2022-09-12T11:07:35.907Z,66.18
2022-09-12T11:10:11.642Z,66.29
2022-09-12T11:12:53.042Z,66.63
2022-09-12T11:15:40.996Z,66.45
2022-09-12T11:18:07.631Z,66.49
2022-09-12T11:20:44.572Z,66.52
2022-09-12T11:23:28.512Z,66.56
2022-09-12T11:25:58.402Z,66.73
2022-09-12T11:28:48.436Z,66.53
2022-09-12T11:31:31.866Z,66.83
2022-09-12T11:34:00.334Z,66.51
2022-09-12T11:36:56.946Z,66.87
2022-09-12T11:39:30.110Z,66.66
2022-09-12T11:42:00.484Z,66.73
2022-09-12T11:44:40.163Z,66.97
2022-09-12T11:47:14.560Z,66.61
2022-09-12T11:49:48.548Z,66.68
2022-09-12T11:52:25.851Z,66.84
2022-09-12T11:55:01.151Z,66.81
2022-09-12T11:57:45.759Z,66.96
2022-09-12T12:00:17.650Z,66.72
2022-09-12T12:02:55.441Z,66.82
2022-09-12T12:05:42.312Z,66.94
2022-09-12T12:08:09.407Z,66.97
2022-09-12T12:10:56.190Z,67.08
2022-09-12T12:13:34.762Z,66.70
2022-09-12T12:16:08.226Z,66.58
2022-09-12T12:18:38.015Z,66.98
2022-09-12T12:21:29.346Z,66.70
2022-09-12T12:24:23.200Z,66.47
2022-09-12T12:26:52.974Z,66.93
2022-09-12T12:29:19.595Z,66.38
2022-09-12T12:31:58.343Z,66.54
2022-09-12T12:34:33.248Z,66.33
2022-09-12T12:37:19.875Z,66.36
2022-09-12T12:39:50.358Z,66.87
2022-09-12T12:42:32.322Z,66.60
2022-09-12T12:45:00.382Z,66.76
2022-09-12T12:47:32.294Z,66.78
2022-09-12T12:50:11.222Z,66.90
2022-09-12T12:52:53.976Z,67.30
2022-09-12T12:55:26.228Z,67.15
2022-09-12T12:57:54.200Z,67.02
2022-09-12T13:00:20.935Z,67.52
2022-09-12T13:03:00.573Z,67.40
2022-09-12T13:05:29.983Z,67.37
2022-09-12T13:08:02.765Z,67.09
2022-09-12T13:10:29.851Z,67.45
2022-09-12T13:13:03.269Z,67.19
2022-09-12T13:15:36.138Z,67.37
2022-09-12T13:18:08.126Z,67.56
2022-09-12T13:20:44.089Z,67.48
2022-09-12T13:23:25.761Z,67.68
2022-09-12T13:25:57.557Z,67.23
2022-09-12T13:28:26.308Z,67.22
2022-09-12T13:31:00.926Z,67.42
2022-09-12T13:33:43.068Z,67.49
2022-09-12T13:36:13.494Z,67.42
2022-09-12T13:38:54.343Z,67.15
2022-09-12T13:41:33.216Z,67.43
2022-09-12T13:44:00.907Z,67.29
2022-09-12T13:46:32.617Z,67.09
2022-09-12T13:49:00.824Z,67.34
2022-09-12T13:51:30.054Z,66.87
2022-09-12T13:54:00.066Z,66.80
2022-09-12T13:56:26.862Z,67.18
2022-09-12T13:58:56.807Z,67.08
2022-09-12T14:01:25.776Z,67.15
2022-09-12T14:04:15.248Z,67.25
2022-09-12T14:06:50.066Z,67.04
2022-09-12T14:09:25.303Z,66.96
2022-09-12T14:11:52.820Z,67.29
2022-09-12T14:14:42.082Z,67.17
2022-09-12T14:17:23.051Z,67.12
2022-09-12T14:19:51.237Z,67.13
2022-09-12T14:22:18.047Z,66.98
2022-09-12T14:24:50.402Z,67.16
2022-09-12T14:27:26.068Z,67.01
2022-09-12T14:29:57.870Z,66.94
2022-09-12T14:32:24.771Z,67.20
2022-09-12T14:35:18.209Z,67.24
2022-09-12T14:37:48.198Z,67.09
2022-09-12T14:40:23.470Z,67.25
2022-09-12T14:42:52.526Z,66.92
2022-09-12T14:45:32.130Z,66.94
2022-09-12T14:47:58.980Z,67.31
2022-09-12T14:50:29.450Z,66.74
2022-09-12T14:53:24.126Z,67.28
2022-09-12T14:55:54.104Z,67.35
2022-09-12T14:58:20.703Z,67.27
2022-09-12T15:01:07.224Z,66.85
2022-09-12T15:03:48.696Z,67.29
2022-09-12T15:06:28.185Z,67.38
2022-09-12T15:08:55.972Z,67.14
2022-09-12T15:11:22.749Z,67.17
2022-09-12T15:13:49.598Z,67.47
2022-09-12T15:16:16.688Z,67.60
2022-09-12T15:18:43.551Z,67.58
2022-09-12T15:21:14.012Z,67.41
2022-09-12T15:23:44.700Z,67.54
2022-09-12T15:26:19.914Z,67.63
2022-09-12T15:28:46.653Z,67.63
2022-09-12T15:31:25.260Z,67.63
2022-09-12T15:33:52.239Z,67.74
2022-09-12T15:36:20.654Z,67.63
2022-09-12T15:38:47.922Z,68.03
2022-09-12T15:41:19.700Z,67.59
2022-09-12T15:43:46.977Z,67.61
2022-09-12T15:46:15.171Z,67.79
2022-09-12T15:48:41.940Z,67.89
2022-09-12T15:51:15.420Z,68.30
2022-09-12T15:53:43.074Z,67.86
2022-09-12T15:56:09.871Z,68.19
2022-09-12T15:58:36.676Z,68.43
2022-09-12T16:01:04.311Z,68.44
2022-09-12T16:03:31.431Z,68.13
2022-09-12T16:06:02.436Z,68.20
2022-09-12T16:08:31.398Z,68.70
2022-09-12T16:11:00.417Z,68.67
2022-09-12T16:13:27.359Z,68.47
2022-09-12T16:15:57.445Z,68.76
2022-09-12T16:18:24.448Z,68.67
2022-09-12T16:20:55.257Z,68.85
2022-09-12T16:23:22.279Z,68.67
2022-09-12T16:26:06.119Z,68.82
2022-09-12T16:28:33.554Z,68.69
2022-09-12T16:31:02.087Z,68.73
2022-09-12T16:33:29.881Z,68.95
2022-09-12T16:36:04.447Z,68.58
2022-09-12T16:38:31.543Z,68.90
2022-09-12T16:41:02.495Z,68.88
2022-09-12T16:43:30.109Z,68.63
2022-09-12T16:46:06.710Z,68.69
2022-09-12T16:48:33.701Z,68.80
2022-09-12T16:51:02.306Z,68.96
2022-09-12T16:53:33.416Z,69.02
2022-09-12T16:56:00.437Z,69.05
2022-09-12T16:58:27.654Z,68.95
2022-09-12T17:01:05.490Z,68.70
2022-09-12T17:03:32.257Z,68.90
2022-09-12T17:06:01.180Z,68.58
2022-09-12T17:08:29.066Z,69.09
2022-09-12T17:11:04.118Z,68.64
2022-09-12T17:13:46.872Z,68.72
2022-09-12T17:16:19.022Z,68.50
2022-09-12T17:18:45.760Z,68.72
2022-09-12T17:21:12.940Z,68.44
2022-09-12T17:23:40.322Z,68.38
2022-09-12T17:26:07.569Z,68.24
2022-09-12T17:28:34.277Z,68.18
2022-09-12T17:31:11.816Z,68.18
2022-09-12T17:33:39.581Z,67.91
2022-09-12T17:36:12.553Z,67.75
2022-09-12T17:38:39.710Z,67.84
2022-09-12T17:41:07.114Z,67.69
2022-09-12T17:43:34.974Z,67.45
2022-09-12T17:46:01.731Z,67.54
2022-09-12T17:48:28.449Z,67.47
2022-09-12T17:50:55.142Z,67.66
2022-09-12T17:53:21.901Z,67.34
2022-09-12T17:55:51.516Z,67.43
2022-09-12T17:58:20.925Z,67.48
2022-09-12T18:01:06.109Z,67.66
2022-09-12T18:03:35.041Z,67.38
2022-09-12T18:06:01.995Z,67.40
2022-09-12T18:08:28.779Z,67.20
2022-09-12T18:11:03.839Z,67.29
2022-09-12T18:13:32.402Z,67.41
2022-09-12T18:16:04.036Z,67.34
2022-09-12T18:18:31.534Z,67.33
2022-09-12T18:20:58.389Z,67.33
2022-09-12T18:23:25.102Z,67.34
2022-09-12T18:25:59.816Z,67.01
2022-09-12T18:28:26.846Z,66.99
2022-09-12T18:30:53.901Z,67.03
2022-09-12T18:33:23.859Z,66.75
2022-09-12T18:35:51.225Z,66.84
2022-09-12T18:38:17.955Z,67.07
2022-09-12T18:40:44.648Z,66.82
2022-09-12T18:43:11.371Z,66.80
2022-09-12T18:45:38.063Z,66.88
2022-09-12T18:48:06.094Z,66.84
2022-09-12T18:50:33.064Z,66.89
2022-09-12T18:53:00.127Z,66.87
2022-09-12T18:55:27.079Z,66.71
2022-09-12T18:57:55.249Z,66.66
2022-09-12T19:00:22.071Z,66.54
2022-09-12T19:02:49.045Z,66.64
2022-09-12T19:05:15.937Z,66.66
2022-09-12T19:07:42.672Z,66.61
2022-09-12T19:10:09.384Z,66.53
2022-09-12T19:12:36.089Z,66.41
2022-09-12T19:15:03.892Z,66.45
2022-09-12T19:17:30.656Z,66.38
2022-09-12T19:19:57.393Z,66.55
2022-09-12T19:22:24.120Z,66.46
2022-09-12T19:24:50.824Z,66.44
2022-09-12T19:27:17.542Z,66.36
2022-09-12T19:29:44.279Z,66.21
2022-09-12T19:32:11.008Z,66.30
2022-09-12T19:34:37.776Z,66.23
2022-09-12T19:37:04.474Z,66.28
2022-09-12T19:39:31.372Z,66.38
2022-09-12T19:41:58.093Z,66.02
2022-09-12T19:44:27.056Z,66.07
2022-09-12T19:46:53.750Z,66.21
2022-09-12T19:49:20.457Z,66.17
2022-09-12T19:51:47.185Z,65.95
2022-09-12T19:54:13.916Z,65.77
2022-09-12T19:56:40.739Z,65.73
2022-09-12T19:59:07.450Z,65.87
2022-09-12T20:01:36.778Z,65.91
2022-09-12T20:04:04.483Z,65.73
2022-09-12T20:06:31.192Z,65.56
2022-09-12T20:08:57.976Z,65.81
2022-09-12T20:11:25.665Z,65.65
2022-09-12T20:13:52.340Z,65.45
2022-09-12T20:16:25.346Z,65.62
2022-09-12T20:18:58.118Z,65.45
2022-09-12T20:21:30.902Z,65.21
2022-09-12T20:24:02.857Z,65.52
2022-09-12T20:26:29.729Z,65.33
2022-09-12T20:28:56.552Z,65.40
2022-09-12T20:31:23.342Z,65.32
2022-09-12T20:33:52.146Z,65.47
2022-09-12T20:36:20.355Z,65.33
2022-09-12T20:38:49.541Z,65.62
2022-09-12T20:41:17.077Z,65.27
2022-09-12T20:43:43.793Z,65.31
2022-09-12T20:46:11.410Z,65.34
2022-09-12T20:48:38.883Z,65.17
2022-09-12T20:51:06.320Z,65.58
2022-09-12T20:53:35.201Z,65.10
2022-09-12T20:56:03.045Z,65.47
2022-09-12T20:58:29.835Z,65.20
2022-09-12T21:00:56.718Z,65.37
2022-09-12T21:03:23.504Z,65.45
2022-09-12T21:05:50.215Z,65.27
2022-09-12T21:08:17.164Z,65.02
2022-09-12T21:10:44.433Z,65.06
2022-09-12T21:13:12.128Z,65.35
2022-09-12T21:15:39.837Z,65.36
2022-09-12T21:18:06.627Z,65.24
2022-09-12T21:20:33.771Z,65.35
2022-09-12T21:23:00.642Z,65.32
2022-09-12T21:25:28.878Z,65.33
2022-09-12T21:27:55.703Z,65.09
2022-09-12T21:30:22.515Z,65.34
2022-09-12T21:32:49.244Z,65.55
2022-09-12T21:35:16.209Z,65.58
2022-09-12T21:37:42.909Z,65.50
2022-09-12T21:40:10.022Z,65.49
2022-09-12T21:42:36.779Z,65.36
2022-09-12T21:45:03.585Z,65.52
2022-09-12T21:47:30.322Z,65.67
2022-09-12T21:49:57.575Z,65.50
2022-09-12T21:52:24.337Z,65.60
2022-09-12T21:54:51.031Z,65.77
2022-09-12T21:57:17.737Z,65.69
2022-09-12T21:59:44.465Z,65.76
2022-09-12T22:02:12.356Z,65.55
2022-09-12T22:04:39.425Z,65.70
2022-09-12T22:07:06.685Z,65.64
2022-09-12T22:09:34.373Z,65.54
2022-09-12T22:12:02.227Z,65.42
2022-09-12T22:14:29.387Z,65.76
2022-09-12T22:16:56.715Z,65.73
2022-09-12T22:19:23.474Z,65.65
2022-09-12T22:22:08.957Z,65.56
2022-09-12T22:24:35.792Z,65.43
2022-09-12T22:27:04.257Z,65.72
2022-09-12T22:29:31.257Z,65.67
2022-09-12T22:31:59.076Z,65.71
2022-09-12T22:34:26.826Z,65.54
2022-09-12T22:36:53.583Z,65.55
2022-09-12T22:39:20.448Z,65.56
2022-09-12T22:41:47.233Z,65.63
2022-09-12T22:44:14.199Z,65.43
2022-09-12T22:46:40.980Z,65.52
2022-09-12T22:49:07.804Z,65.69
2022-09-12T22:51:34.742Z,65.63
2022-09-12T22:54:01.806Z,65.70
2022-09-12T22:56:28.511Z,65.87
2022-09-12T22:58:55.296Z,65.76
2022-09-12T23:01:22.034Z,65.68
2022-09-12T23:03:48.926Z,66.03
2022-09-12T23:06:15.816Z,66.04
2022-09-12T23:08:42.593Z,65.99
2022-09-12T23:11:11.592Z,65.58
2022-09-12T23:13:38.947Z,66.06
2022-09-12T23:16:07.102Z,66.01
2022-09-12T23:18:35.954Z,65.92
2022-09-12T23:21:05.314Z,65.99
2022-09-12T23:23:32.632Z,66.22
2022-09-12T23:26:07.386Z,65.87
2022-09-12T23:28:34.802Z,65.97
2022-09-12T23:31:02.003Z,66.16
2022-09-12T23:33:29.441Z,66.28
2022-09-12T23:36:00.513Z,66.13
2022-09-12T23:38:28.544Z,66.35
2022-09-12T23:40:55.258Z,66.08
2022-09-12T23:43:22.013Z,66.30
2022-09-12T23:45:48.801Z,66.07
2022-09-12T23:48:15.765Z,66.00
2022-09-12T23:50:46.527Z,66.37
2022-09-12T23:53:14.632Z,66.38
2022-09-12T23:55:41.560Z,66.27
2022-09-12T23:58:08.409Z,66.37
